Fort Worth Meacham International Airport
KFTW : now visible

Airfield :











YOU CAN JOIN US ON...

 
LOGIN :

Register | Disclaimer

   EN    FR    IT 

 









Legend :    VFR   Marginal VFR   IFR   Intensive IFR   Very Intensive IFR
Visi :
Ceiling :
>= 8 km
>= 3000ft
5 to 8 km
1000 to 3000 ft
1500m to 5 km
500 to 1000 ft
800 to 1500m
200 to 500 ft
< 800m
< 200 ft
Symbols :   Thunderstorms  Fog  Heavy snow  Heavy precipitations  Wind > 20 kt






- Airport Elevation : 710 ft
- IATA code : FTW


KFTW - Fort Worth Meacham International

CURRENT METAR :
  • 130453Z 11005KT 10SM CLR 07/05 A3001 RMK AO2 SLP162 T00720050

EXPIRED METARs :
  • 130353Z 12006KT 10SM CLR 08/05 A3003 RMK AO2 SLP170 T00780050
  • 130253Z 12004KT 10SM CLR 09/04 A3004 RMK AO2 SLP173 T00890044 55006

TAF KFTW
Valid from the 13 at 06:00 until the 14 at 06:00 UTC


130520Z 1306/1406 13006KT P6SM FEW250
FM131100 17004KT 4SM BR BCFG FEW005
TEMPO 1311/1314 00000KT 1SM BR BKN003
FM131600 28007KT P6SM FEW250



MET'MAP, your aeronautical weather chart ! - Copyright ORBIFLY December 2007 - Disclaimer

ORBIFLY MET'MAP TEAM :

Programming & Development : Alexandra Zaïnal
Concept & original design : Baudouin d'Aumeries
Assistance for programming : Marc-Olivier Méhu
Technical & hardware support : Manuel Goepfert

Contact : metmap@orbifly.com




SOURCES & CREDITS :

   NOAA       Earth
Advisory